createdAt,value
2022-12-19T00:00:38.457Z,1024.69
2022-12-19T00:01:17.455Z,1024.65
2022-12-19T00:02:17.471Z,1024.60
2022-12-19T00:03:17.357Z,1024.58
2022-12-19T00:04:17.287Z,1024.45
2022-12-19T00:05:17.117Z,1024.51
2022-12-19T00:06:38.048Z,1024.33
2022-12-19T00:07:16.967Z,1024.35
2022-12-19T00:08:17.820Z,1024.31
2022-12-19T00:09:16.807Z,1024.26
2022-12-19T00:10:16.738Z,1024.24
2022-12-19T00:11:16.690Z,1024.25
2022-12-19T00:12:37.562Z,1024.28
2022-12-19T00:13:16.510Z,1024.27
2022-12-19T00:14:16.442Z,1024.20
2022-12-19T00:15:16.357Z,1024.17
2022-12-19T00:16:17.637Z,1024.13
2022-12-19T00:17:16.265Z,1024.09
2022-12-19T00:18:37.124Z,1024.06
2022-12-19T00:19:16.066Z,1024.12
2022-12-19T00:20:16.109Z,1024.05
2022-12-19T00:21:15.938Z,1024.11
2022-12-19T00:22:15.849Z,1024.12
2022-12-19T00:23:15.770Z,1024.18
2022-12-19T00:24:36.658Z,1024.15
2022-12-19T00:25:15.612Z,1024.21
2022-12-19T00:26:15.537Z,1024.25
2022-12-19T00:27:15.464Z,1024.29
2022-12-19T00:28:15.384Z,1024.43
2022-12-19T00:29:15.319Z,1024.44
2022-12-19T00:30:36.213Z,1024.45
2022-12-19T00:31:15.230Z,1024.38
2022-12-19T00:32:15.126Z,1024.34
2022-12-19T00:33:15.012Z,1024.18
2022-12-19T00:34:15.008Z,1024.13
2022-12-19T00:35:14.915Z,1024.17
2022-12-19T00:36:35.871Z,1024.12
2022-12-19T00:37:14.726Z,1023.99
2022-12-19T00:38:14.675Z,1024.05
2022-12-19T00:39:14.563Z,1024.00
2022-12-19T00:40:14.508Z,1024.13
2022-12-19T00:41:14.441Z,1024.04
2022-12-19T00:42:35.346Z,1024.04
2022-12-19T00:43:14.295Z,1024.06
2022-12-19T00:44:14.306Z,1023.98
2022-12-19T00:45:14.138Z,1024.00
2022-12-19T00:46:14.095Z,1023.94
2022-12-19T00:47:13.972Z,1023.92
2022-12-19T00:48:34.879Z,1024.01
2022-12-19T00:49:13.822Z,1023.94
2022-12-19T00:50:13.765Z,1023.91
2022-12-19T00:51:13.667Z,1023.87
2022-12-19T00:52:13.695Z,1023.94
2022-12-19T00:53:13.547Z,1023.89
2022-12-19T00:54:34.540Z,1023.95
2022-12-19T00:55:17.775Z,1023.94
2022-12-19T00:56:13.297Z,1023.94
2022-12-19T00:57:13.219Z,1023.88
2022-12-19T00:58:13.222Z,1023.89
2022-12-19T00:59:13.149Z,1023.87
2022-12-19T01:00:34.039Z,1023.84
2022-12-19T01:01:12.999Z,1023.82
2022-12-19T01:02:12.978Z,1023.83
2022-12-19T01:03:12.808Z,1023.89
2022-12-19T01:04:28.097Z,1023.82
2022-12-19T01:05:12.639Z,1023.84
2022-12-19T01:06:33.548Z,1023.76
2022-12-19T01:07:12.476Z,1023.82
2022-12-19T01:08:12.491Z,1023.73
2022-12-19T01:09:12.318Z,1023.72
2022-12-19T01:10:12.263Z,1023.70
2022-12-19T01:11:12.262Z,1023.65
2022-12-19T01:12:33.119Z,1023.57
2022-12-19T01:13:12.035Z,1023.49
2022-12-19T01:14:14.944Z,1023.46
2022-12-19T01:15:11.884Z,1023.41
2022-12-19T01:16:11.903Z,1023.35
2022-12-19T01:17:11.744Z,1023.30
2022-12-19T01:18:32.633Z,1023.33
2022-12-19T01:19:11.580Z,1023.30
2022-12-19T01:20:11.499Z,1023.25
2022-12-19T01:21:11.448Z,1023.22
2022-12-19T01:22:11.367Z,1023.32
2022-12-19T01:23:11.335Z,1023.27
2022-12-19T01:24:32.297Z,1023.19
2022-12-19T01:25:11.134Z,1023.18
2022-12-19T01:26:11.068Z,1023.05
2022-12-19T01:27:10.973Z,1023.09
2022-12-19T01:28:10.916Z,1023.17
2022-12-19T01:29:10.885Z,1023.06
2022-12-19T01:30:31.772Z,1023.07
2022-12-19T01:31:10.794Z,1023.10
2022-12-19T01:32:10.602Z,1023.03
2022-12-19T01:33:10.524Z,1023.01
2022-12-19T01:34:10.513Z,1023.02
2022-12-19T01:35:16.657Z,1022.89
2022-12-19T01:36:31.304Z,1022.93
2022-12-19T01:37:10.242Z,1022.92
2022-12-19T01:38:10.185Z,1022.92
2022-12-19T01:39:10.132Z,1022.96
2022-12-19T01:40:10.110Z,1022.83
2022-12-19T01:41:09.942Z,1022.85
2022-12-19T01:42:30.867Z,1022.82
2022-12-19T01:43:09.792Z,1022.89
2022-12-19T01:44:09.708Z,1022.73
2022-12-19T01:45:12.301Z,1022.65
2022-12-19T01:46:09.624Z,1022.55
2022-12-19T01:47:09.494Z,1022.60
2022-12-19T01:48:30.425Z,1022.67
2022-12-19T01:49:09.343Z,1022.76
2022-12-19T01:50:09.268Z,1022.61
2022-12-19T01:51:09.201Z,1022.84
2022-12-19T01:52:09.125Z,1022.71
2022-12-19T01:53:09.066Z,1022.64
2022-12-19T01:54:29.976Z,1022.65
2022-12-19T01:55:09.580Z,1022.68
2022-12-19T01:56:08.888Z,1022.66
2022-12-19T01:57:08.710Z,1022.55
2022-12-19T01:58:08.680Z,1022.66
2022-12-19T01:59:08.581Z,1022.64
2022-12-19T02:00:29.501Z,1022.68
2022-12-19T02:01:08.489Z,1022.63
2022-12-19T02:02:08.578Z,1022.55
2022-12-19T02:03:08.272Z,1022.55
2022-12-19T02:04:08.236Z,1022.50
2022-12-19T02:05:08.121Z,1022.47
2022-12-19T02:06:29.032Z,1022.41
2022-12-19T02:07:10.904Z,1022.49
2022-12-19T02:08:07.914Z,1022.52
2022-12-19T02:09:07.816Z,1022.57
2022-12-19T02:10:07.742Z,1022.44
2022-12-19T02:11:07.698Z,1022.56
2022-12-19T02:12:28.721Z,1022.46
2022-12-19T02:13:07.523Z,1022.46
2022-12-19T02:14:07.467Z,1022.37
2022-12-19T02:15:07.399Z,1022.36
2022-12-19T02:16:07.346Z,1022.42
2022-12-19T02:17:07.236Z,1022.48
2022-12-19T02:18:28.135Z,1022.41
2022-12-19T02:19:07.080Z,1022.44
2022-12-19T02:20:07.017Z,1022.45
2022-12-19T02:21:06.949Z,1022.38
2022-12-19T02:22:06.907Z,1022.34
2022-12-19T02:23:06.782Z,1022.30
2022-12-19T02:24:27.704Z,1022.31
2022-12-19T02:25:06.642Z,1022.28
2022-12-19T02:26:06.569Z,1022.28
2022-12-19T02:27:06.481Z,1022.21
2022-12-19T02:28:06.544Z,1022.18
2022-12-19T02:29:06.355Z,1022.14
2022-12-19T02:30:27.246Z,1022.17
2022-12-19T02:31:14.260Z,1022.20
2022-12-19T02:32:06.150Z,1022.18
2022-12-19T02:33:06.056Z,1022.17
2022-12-19T02:34:05.965Z,1022.17
2022-12-19T02:35:05.891Z,1022.22
2022-12-19T02:36:26.809Z,1022.19
2022-12-19T02:37:05.744Z,1022.20
2022-12-19T02:38:06.854Z,1022.38
2022-12-19T02:39:05.594Z,1022.22
2022-12-19T02:40:05.534Z,1022.23
2022-12-19T02:41:05.455Z,1022.13
2022-12-19T02:42:26.378Z,1022.14
2022-12-19T02:43:05.322Z,1022.17
2022-12-19T02:44:05.333Z,1022.08
2022-12-19T02:45:05.152Z,1022.13
2022-12-19T02:46:05.151Z,1022.15
2022-12-19T02:47:05.007Z,1022.15
2022-12-19T02:48:25.915Z,1022.15
2022-12-19T02:49:04.889Z,1022.09
2022-12-19T02:50:04.801Z,1022.14
2022-12-19T02:51:04.727Z,1022.08
2022-12-19T02:52:04.658Z,1022.06
2022-12-19T02:53:04.593Z,1022.06
2022-12-19T02:54:25.488Z,1022.09
2022-12-19T02:55:04.430Z,1022.12
2022-12-19T02:56:08.093Z,1022.12
2022-12-19T02:57:04.279Z,1022.06
2022-12-19T02:58:04.209Z,1022.06
2022-12-19T02:59:04.121Z,1022.09
2022-12-19T03:00:25.143Z,1022.09
2022-12-19T03:01:04.042Z,1022.06
2022-12-19T03:02:04.022Z,1021.99
2022-12-19T03:03:03.935Z,1021.97
2022-12-19T03:04:03.761Z,1022.01
2022-12-19T03:05:03.693Z,1021.92
2022-12-19T03:06:24.595Z,1021.97
2022-12-19T03:07:03.530Z,1021.93
2022-12-19T03:08:03.449Z,1021.95
2022-12-19T03:09:03.425Z,1021.97
2022-12-19T03:10:03.307Z,1021.96
2022-12-19T03:11:03.240Z,1021.93
2022-12-19T03:12:24.142Z,1021.85
2022-12-19T03:13:03.095Z,1021.87
2022-12-19T03:14:03.019Z,1021.92
2022-12-19T03:15:02.929Z,1021.89
2022-12-19T03:16:02.959Z,1021.92
2022-12-19T03:17:02.811Z,1021.87
2022-12-19T03:18:23.704Z,1021.87
2022-12-19T03:19:02.632Z,1021.95
2022-12-19T03:20:02.562Z,1021.91
2022-12-19T03:21:02.497Z,1021.93
2022-12-19T03:22:02.429Z,1021.97
2022-12-19T03:23:02.370Z,1021.92
2022-12-19T03:24:23.247Z,1021.96
2022-12-19T03:25:02.215Z,1021.97
2022-12-19T03:26:02.793Z,1021.92
2022-12-19T03:27:02.046Z,1021.99
2022-12-19T03:28:02.019Z,1022.02
2022-12-19T03:29:01.920Z,1022.06
2022-12-19T03:30:22.819Z,1022.04
2022-12-19T03:31:01.813Z,1022.05
2022-12-19T03:32:01.776Z,1021.97
2022-12-19T03:33:01.609Z,1021.95
2022-12-19T03:34:01.557Z,1021.93
2022-12-19T03:35:01.561Z,1021.87
2022-12-19T03:36:22.500Z,1021.82
2022-12-19T03:37:02.193Z,1021.79
2022-12-19T03:38:01.333Z,1021.77
2022-12-19T03:39:01.184Z,1021.77
2022-12-19T03:40:01.085Z,1021.78
2022-12-19T03:41:01.002Z,1021.79
2022-12-19T03:42:21.946Z,1021.78
2022-12-19T03:43:00.871Z,1021.83
2022-12-19T03:44:00.872Z,1021.81
2022-12-19T03:45:00.705Z,1021.88
2022-12-19T03:46:00.671Z,1021.91
2022-12-19T03:47:00.569Z,1021.83
2022-12-19T03:48:21.583Z,1021.97
2022-12-19T03:49:00.421Z,1021.98
2022-12-19T03:50:00.435Z,1021.88
2022-12-19T03:51:00.266Z,1021.91
2022-12-19T03:52:00.201Z,1022.02
2022-12-19T03:53:00.114Z,1021.90
2022-12-19T03:54:21.040Z,1021.86
2022-12-19T03:54:59.971Z,1021.91
2022-12-19T03:55:59.912Z,1021.86
2022-12-19T03:56:59.823Z,1021.85
2022-12-19T03:57:59.751Z,1021.80
2022-12-19T03:58:59.671Z,1021.82
2022-12-19T04:00:20.586Z,1021.79
2022-12-19T04:00:59.524Z,1021.83
2022-12-19T04:01:59.507Z,1021.82
2022-12-19T04:02:59.483Z,1021.76
2022-12-19T04:03:59.401Z,1021.80
2022-12-19T04:04:59.227Z,1021.83
2022-12-19T04:06:20.143Z,1021.93
2022-12-19T04:06:59.082Z,1021.81
2022-12-19T04:07:59.019Z,1021.82
2022-12-19T04:08:58.939Z,1021.76
2022-12-19T04:09:58.859Z,1021.79
2022-12-19T04:10:58.816Z,1021.81
2022-12-19T04:12:19.703Z,1021.79
2022-12-19T04:12:58.629Z,1021.74
2022-12-19T04:13:58.587Z,1021.79
2022-12-19T04:14:58.602Z,1021.76
2022-12-19T04:15:58.504Z,1021.70
2022-12-19T04:16:58.336Z,1021.72
2022-12-19T04:18:19.254Z,1021.76
2022-12-19T04:18:58.231Z,1021.71
2022-12-19T04:19:58.262Z,1021.70
2022-12-19T04:20:58.035Z,1021.65
2022-12-19T04:21:57.981Z,1021.66
2022-12-19T04:22:57.889Z,1021.69
2022-12-19T04:24:18.795Z,1021.76
2022-12-19T04:24:57.746Z,1021.75
2022-12-19T04:25:57.682Z,1021.74
2022-12-19T04:26:57.596Z,1021.77
2022-12-19T04:27:57.554Z,1021.72
2022-12-19T04:28:57.505Z,1021.80
2022-12-19T04:30:18.356Z,1021.78
2022-12-19T04:30:57.363Z,1021.78
2022-12-19T04:31:57.234Z,1021.75
2022-12-19T04:32:57.179Z,1021.75
2022-12-19T04:33:57.091Z,1021.75
2022-12-19T04:34:57.004Z,1021.80
2022-12-19T04:36:18.011Z,1021.73
2022-12-19T04:36:56.850Z,1021.81
2022-12-19T04:37:56.780Z,1021.73
2022-12-19T04:38:56.720Z,1021.75
2022-12-19T04:39:56.626Z,1021.78
2022-12-19T04:40:56.576Z,1021.82
2022-12-19T04:42:17.464Z,1021.80
2022-12-19T04:42:56.414Z,1021.82
2022-12-19T04:43:56.362Z,1021.81
2022-12-19T04:44:56.255Z,1021.76
2022-12-19T04:45:57.772Z,1021.76
2022-12-19T04:46:56.148Z,1021.72
2022-12-19T04:48:17.064Z,1021.76
2022-12-19T04:48:55.959Z,1021.71
2022-12-19T04:49:55.900Z,1021.67
2022-12-19T04:50:55.822Z,1021.65
2022-12-19T04:51:55.874Z,1021.68
2022-12-19T04:52:57.170Z,1021.59
2022-12-19T04:54:16.565Z,1021.63
2022-12-19T04:54:55.518Z,1021.63
2022-12-19T04:55:55.449Z,1021.62
2022-12-19T04:56:55.367Z,1021.66
2022-12-19T04:57:55.325Z,1021.58
2022-12-19T04:58:55.215Z,1021.55
2022-12-19T05:00:16.197Z,1021.52
2022-12-19T05:00:55.067Z,1021.50
2022-12-19T05:01:55.149Z,1021.50
2022-12-19T05:02:55.140Z,1021.52
2022-12-19T05:03:58.596Z,1021.46
2022-12-19T05:04:54.769Z,1021.41
2022-12-19T05:06:15.683Z,1021.50
2022-12-19T05:06:54.741Z,1021.46
2022-12-19T05:07:54.653Z,1021.46
2022-12-19T05:08:54.476Z,1021.47
2022-12-19T05:09:54.414Z,1021.54
2022-12-19T05:10:54.328Z,1021.45
2022-12-19T05:12:15.252Z,1021.44
2022-12-19T05:12:54.185Z,1021.30
2022-12-19T05:13:54.109Z,1021.34
2022-12-19T05:14:54.042Z,1021.38
2022-12-19T05:15:54.008Z,1021.42
2022-12-19T05:17:00.403Z,1021.37
2022-12-19T05:18:14.808Z,1021.38
2022-12-19T05:18:53.747Z,1021.32
2022-12-19T05:19:53.672Z,1021.31
2022-12-19T05:20:53.627Z,1021.30
2022-12-19T05:21:53.510Z,1021.35
2022-12-19T05:22:53.442Z,1021.41
2022-12-19T05:24:14.441Z,1021.40
2022-12-19T05:24:53.289Z,1021.46
2022-12-19T05:25:53.235Z,1021.43
2022-12-19T05:26:53.153Z,1021.45
2022-12-19T05:27:53.085Z,1021.44
2022-12-19T05:28:52.990Z,1021.42
2022-12-19T05:30:13.908Z,1021.47
2022-12-19T05:30:52.851Z,1021.45
2022-12-19T05:31:52.772Z,1021.43
2022-12-19T05:32:52.703Z,1021.45
2022-12-19T05:33:52.633Z,1021.40
2022-12-19T05:34:52.592Z,1021.32
2022-12-19T05:36:13.476Z,1021.31
2022-12-19T05:36:52.410Z,1021.20
2022-12-19T05:37:52.326Z,1021.26
2022-12-19T05:38:52.246Z,1021.29
2022-12-19T05:39:52.281Z,1021.31
2022-12-19T05:40:52.094Z,1021.30
2022-12-19T05:42:13.027Z,1021.31
2022-12-19T05:42:51.951Z,1021.27
2022-12-19T05:43:51.876Z,1021.19
2022-12-19T05:44:51.804Z,1021.13
2022-12-19T05:45:51.762Z,1021.18
2022-12-19T05:46:51.733Z,1021.07
2022-12-19T05:48:12.575Z,1021.01
2022-12-19T05:48:51.510Z,1021.10
2022-12-19T05:49:51.494Z,1021.04
2022-12-19T05:50:51.412Z,1021.09
2022-12-19T05:51:51.278Z,1021.06
2022-12-19T05:52:51.208Z,1021.08
2022-12-19T05:54:12.114Z,1021.04
2022-12-19T05:54:51.164Z,1020.94
2022-12-19T05:55:51.102Z,1021.02
2022-12-19T05:56:50.917Z,1020.97
2022-12-19T05:57:50.850Z,1021.03
2022-12-19T05:58:50.783Z,1020.98
2022-12-19T06:00:11.683Z,1021.03
2022-12-19T06:00:50.624Z,1020.97
2022-12-19T06:01:50.713Z,1020.99
2022-12-19T06:02:50.596Z,1021.01
2022-12-19T06:03:50.520Z,1020.96
2022-12-19T06:04:50.335Z,1020.89
2022-12-19T06:06:11.237Z,1020.92
2022-12-19T06:06:50.193Z,1020.90
2022-12-19T06:07:50.097Z,1020.93
2022-12-19T06:08:50.046Z,1020.95
2022-12-19T06:09:50.175Z,1020.95
2022-12-19T06:10:49.877Z,1020.92
2022-12-19T06:12:10.923Z,1020.90
2022-12-19T06:12:49.745Z,1020.88
2022-12-19T06:13:49.659Z,1020.77
2022-12-19T06:14:49.603Z,1020.80
2022-12-19T06:15:49.547Z,1020.74
2022-12-19T06:16:49.445Z,1020.85
2022-12-19T06:18:10.413Z,1020.71
2022-12-19T06:18:49.440Z,1020.74
2022-12-19T06:19:49.233Z,1020.66
2022-12-19T06:20:49.150Z,1020.67
2022-12-19T06:21:49.062Z,1020.67
2022-12-19T06:22:48.989Z,1020.59
2022-12-19T06:24:09.908Z,1020.64
2022-12-19T06:24:48.850Z,1020.55
2022-12-19T06:25:48.772Z,1020.58
2022-12-19T06:26:48.692Z,1020.55
2022-12-19T06:27:48.739Z,1020.55
2022-12-19T06:28:48.565Z,1020.61
2022-12-19T06:30:09.481Z,1020.54
2022-12-19T06:30:48.407Z,1020.44
2022-12-19T06:31:48.454Z,1020.48
2022-12-19T06:32:48.263Z,1020.42
2022-12-19T06:33:48.209Z,1020.45
2022-12-19T06:35:03.698Z,1020.39
2022-12-19T06:36:09.024Z,1020.43
2022-12-19T06:36:48.038Z,1020.43
2022-12-19T06:37:47.908Z,1020.44
2022-12-19T06:38:47.821Z,1020.45
2022-12-19T06:39:47.744Z,1020.43
2022-12-19T06:40:47.654Z,1020.40
2022-12-19T06:42:08.563Z,1020.40
2022-12-19T06:42:47.523Z,1020.44
2022-12-19T06:43:51.901Z,1020.43
2022-12-19T06:44:47.361Z,1020.51
2022-12-19T06:45:47.366Z,1020.42
2022-12-19T06:46:47.232Z,1020.45
2022-12-19T06:48:08.121Z,1020.51
2022-12-19T06:48:47.089Z,1020.51
2022-12-19T06:49:47.003Z,1020.52
2022-12-19T06:50:46.951Z,1020.55
2022-12-19T06:51:46.982Z,1020.46
2022-12-19T06:52:46.775Z,1020.54
2022-12-19T06:54:07.684Z,1020.53
2022-12-19T06:54:46.693Z,1020.53
2022-12-19T06:55:46.585Z,1020.53
2022-12-19T06:56:46.484Z,1020.57
2022-12-19T06:57:46.442Z,1020.62
2022-12-19T06:58:46.337Z,1020.66
2022-12-19T07:00:07.376Z,1020.64
2022-12-19T07:00:46.224Z,1020.67
2022-12-19T07:01:46.304Z,1020.62
2022-12-19T07:02:46.189Z,1020.78
2022-12-19T07:03:45.962Z,1020.77
2022-12-19T07:04:45.944Z,1020.70
2022-12-19T07:06:06.797Z,1020.71
2022-12-19T07:06:49.095Z,1020.62
2022-12-19T07:07:45.670Z,1020.60
2022-12-19T07:08:45.604Z,1020.60
2022-12-19T07:09:45.532Z,1020.60
2022-12-19T07:10:45.522Z,1020.57
2022-12-19T07:12:06.371Z,1020.55
2022-12-19T07:12:45.318Z,1020.46
2022-12-19T07:13:45.225Z,1020.55
2022-12-19T07:14:49.053Z,1020.49
2022-12-19T07:15:45.184Z,1020.51
2022-12-19T07:16:45.093Z,1020.55
2022-12-19T07:18:05.934Z,1020.53
2022-12-19T07:18:44.855Z,1020.53
2022-12-19T07:19:44.805Z,1020.43
2022-12-19T07:20:45.331Z,1020.48
2022-12-19T07:21:44.677Z,1020.52
2022-12-19T07:22:44.592Z,1020.49
2022-12-19T07:24:05.491Z,1020.53
2022-12-19T07:24:44.415Z,1020.51
2022-12-19T07:25:44.356Z,1020.55
2022-12-19T07:26:44.280Z,1020.55
2022-12-19T07:27:44.207Z,1020.59
2022-12-19T07:28:44.126Z,1020.54
2022-12-19T07:30:05.045Z,1020.53
2022-12-19T07:30:43.975Z,1020.59
2022-12-19T07:31:44.081Z,1020.59
2022-12-19T07:32:43.839Z,1020.54
2022-12-19T07:33:43.797Z,1020.48
2022-12-19T07:34:43.690Z,1020.54
2022-12-19T07:36:04.600Z,1020.52
2022-12-19T07:36:43.534Z,1020.54
2022-12-19T07:37:43.463Z,1020.56
2022-12-19T07:38:43.412Z,1020.51
2022-12-19T07:39:43.326Z,1020.56
2022-12-19T07:40:43.243Z,1020.58
2022-12-19T07:42:04.176Z,1020.59
2022-12-19T07:42:43.117Z,1020.55
2022-12-19T07:43:43.069Z,1020.63
2022-12-19T07:44:42.956Z,1020.59
2022-12-19T07:45:42.896Z,1020.58
2022-12-19T07:46:42.848Z,1020.56
2022-12-19T07:48:03.810Z,1020.62
2022-12-19T07:48:42.666Z,1020.64
2022-12-19T07:49:42.629Z,1020.61
2022-12-19T07:50:42.518Z,1020.57
2022-12-19T07:51:42.467Z,1020.50
2022-12-19T07:52:42.372Z,1020.47
2022-12-19T07:54:03.281Z,1020.54
2022-12-19T07:54:42.217Z,1020.52
2022-12-19T07:55:42.146Z,1020.51
2022-12-19T07:56:42.112Z,1020.51
2022-12-19T07:57:42.028Z,1020.46
2022-12-19T07:58:41.952Z,1020.54
2022-12-19T08:00:02.859Z,1020.49
2022-12-19T08:00:41.856Z,1020.51
2022-12-19T08:01:41.791Z,1020.53
2022-12-19T08:02:41.905Z,1020.48
2022-12-19T08:03:41.659Z,1020.40
2022-12-19T08:04:41.493Z,1020.40
2022-12-19T08:06:02.433Z,1020.33
2022-12-19T08:06:41.736Z,1020.37
2022-12-19T08:07:41.326Z,1020.34
2022-12-19T08:08:41.201Z,1020.30
2022-12-19T08:09:41.129Z,1020.24
2022-12-19T08:10:41.150Z,1020.25
2022-12-19T08:12:01.968Z,1020.27
2022-12-19T08:12:40.929Z,1020.23
2022-12-19T08:13:46.135Z,1020.26
2022-12-19T08:14:40.774Z,1020.26
2022-12-19T08:15:40.703Z,1020.35
2022-12-19T08:17:11.394Z,1020.31
2022-12-19T08:18:01.661Z,1020.23
2022-12-19T08:18:40.470Z,1020.24
2022-12-19T08:19:40.503Z,1020.21
2022-12-19T08:20:40.332Z,1020.20
2022-12-19T08:21:40.251Z,1020.23
2022-12-19T08:22:40.196Z,1020.12
2022-12-19T08:24:01.099Z,1020.17
2022-12-19T08:24:40.036Z,1020.19
2022-12-19T08:25:39.976Z,1020.26
2022-12-19T08:26:44.503Z,1020.23
2022-12-19T08:27:39.869Z,1020.21
2022-12-19T08:28:39.739Z,1020.17
2022-12-19T08:30:00.659Z,1020.17
2022-12-19T08:30:39.692Z,1020.31
2022-12-19T08:31:39.524Z,1020.27
2022-12-19T08:32:39.494Z,1020.23
2022-12-19T08:33:39.384Z,1020.25
2022-12-19T08:34:39.331Z,1020.28
2022-12-19T08:36:00.232Z,1020.38
2022-12-19T08:36:39.154Z,1020.35
2022-12-19T08:37:39.086Z,1020.34
2022-12-19T08:38:39.025Z,1020.33
2022-12-19T08:39:38.945Z,1020.21
2022-12-19T08:40:44.294Z,1020.24
2022-12-19T08:41:59.784Z,1020.22
2022-12-19T08:42:38.756Z,1020.18
2022-12-19T08:43:38.739Z,1020.20
2022-12-19T08:44:38.591Z,1020.14
2022-12-19T08:45:38.593Z,1020.10
2022-12-19T08:46:38.526Z,1020.12
2022-12-19T08:47:59.360Z,1020.15
2022-12-19T08:48:38.297Z,1020.12
2022-12-19T08:49:38.218Z,1020.18
2022-12-19T08:50:38.143Z,1020.13
2022-12-19T08:51:38.176Z,1020.15
2022-12-19T08:52:38.012Z,1020.09
2022-12-19T08:53:58.923Z,1020.06
2022-12-19T08:54:37.883Z,1019.94
2022-12-19T08:55:37.805Z,1019.95
2022-12-19T08:56:37.721Z,1019.96
2022-12-19T08:57:37.654Z,1019.87
2022-12-19T08:58:37.560Z,1019.84
2022-12-19T08:59:58.496Z,1019.89
2022-12-19T09:00:37.437Z,1019.87
2022-12-19T09:01:37.414Z,1019.86
2022-12-19T09:02:37.558Z,1019.83
2022-12-19T09:04:17.915Z,1019.72
2022-12-19T09:05:59.259Z,1019.71
2022-12-19T09:06:07.128Z,1019.78
2022-12-19T09:06:37.048Z,1019.64
2022-12-19T09:07:38.703Z,1019.67
2022-12-19T09:08:36.845Z,1019.67
2022-12-19T09:09:36.889Z,1019.66
2022-12-19T09:10:36.693Z,1019.65
2022-12-19T09:11:57.681Z,1019.63
2022-12-19T09:12:36.560Z,1019.69
2022-12-19T09:13:36.497Z,1019.58
2022-12-19T09:14:36.424Z,1019.56
2022-12-19T09:15:36.353Z,1019.60
2022-12-19T09:16:36.293Z,1019.52
2022-12-19T09:17:57.177Z,1019.54
2022-12-19T09:18:36.153Z,1019.54
2022-12-19T09:19:36.062Z,1019.54
2022-12-19T09:20:35.990Z,1019.45
2022-12-19T09:21:35.913Z,1019.46
2022-12-19T09:22:35.840Z,1019.48
2022-12-19T09:24:00.638Z,1019.48
2022-12-19T09:24:35.687Z,1019.42
2022-12-19T09:25:35.624Z,1019.49
2022-12-19T09:26:35.561Z,1019.40
2022-12-19T09:27:47.699Z,1019.42
2022-12-19T09:28:35.397Z,1019.41
2022-12-19T09:29:56.309Z,1019.44
2022-12-19T09:30:35.553Z,1019.37
2022-12-19T09:31:35.184Z,1019.37
2022-12-19T09:32:35.098Z,1019.33
2022-12-19T09:33:39.595Z,1019.31
2022-12-19T09:34:37.792Z,1019.38
2022-12-19T09:35:56.870Z,1019.32
2022-12-19T09:36:34.823Z,1019.32
2022-12-19T09:37:34.746Z,1019.33
2022-12-19T09:38:34.685Z,1019.26
2022-12-19T09:39:34.693Z,1019.24
2022-12-19T09:40:34.548Z,1019.23
2022-12-19T09:41:55.442Z,1019.28
2022-12-19T09:42:41.375Z,1019.24
2022-12-19T09:43:41.007Z,1019.25
2022-12-19T09:44:34.268Z,1019.16
2022-12-19T09:45:34.186Z,1019.11
2022-12-19T09:46:34.153Z,1019.09
2022-12-19T09:47:55.013Z,1019.07
2022-12-19T09:54:06.548Z,1018.93
2022-12-19T09:55:06.553Z,1018.96
2022-12-19T09:56:06.372Z,1018.98
2022-12-19T09:57:06.309Z,1018.97
2022-12-19T09:58:06.267Z,1018.93
2022-12-19T09:59:06.171Z,1018.91
2022-12-19T10:00:06.087Z,1018.90
2022-12-19T10:01:06.098Z,1018.81
2022-12-19T10:02:06.018Z,1018.80
2022-12-19T10:03:06.158Z,1018.78
2022-12-19T10:04:05.825Z,1018.82
2022-12-19T10:05:10.383Z,1018.74
2022-12-19T10:07:13.960Z,1018.74
2022-12-19T10:07:16.108Z,1018.75
2022-12-19T10:08:09.689Z,1018.68
2022-12-19T10:09:56.829Z,1018.68
2022-12-19T10:12:34.643Z,1018.70
2022-12-19T10:12:36.543Z,1018.63
2022-12-19T10:12:40.780Z,1018.71
2022-12-19T10:13:12.756Z,1018.68
2022-12-19T10:14:05.069Z,1018.69
2022-12-19T10:15:05.011Z,1018.74
2022-12-19T10:16:05.008Z,1018.64
2022-12-19T10:17:25.754Z,1018.68
2022-12-19T10:18:04.791Z,1018.62
2022-12-19T10:19:04.737Z,1018.63
2022-12-19T10:20:04.649Z,1018.71
2022-12-19T10:21:04.593Z,1018.67
2022-12-19T10:22:19.930Z,1018.60
2022-12-19T10:23:04.452Z,1018.61
2022-12-19T10:24:04.413Z,1018.57
2022-12-19T10:25:09.338Z,1018.57
2022-12-19T10:26:04.249Z,1018.50
2022-12-19T10:27:04.282Z,1018.50
2022-12-19T10:28:04.072Z,1018.44
2022-12-19T10:29:05.488Z,1018.36
2022-12-19T10:30:03.938Z,1018.42
2022-12-19T10:31:12.415Z,1018.33
2022-12-19T10:32:03.974Z,1018.41
2022-12-19T10:33:03.723Z,1018.36
2022-12-19T10:34:03.665Z,1018.38
2022-12-19T10:35:03.594Z,1018.42
2022-12-19T10:36:03.506Z,1018.33
2022-12-19T10:37:24.397Z,1018.37
2022-12-19T10:38:03.383Z,1018.35
2022-12-19T10:39:03.340Z,1018.33
2022-12-19T10:40:03.224Z,1018.40
2022-12-19T10:41:03.173Z,1018.41
2022-12-19T10:42:03.097Z,1018.34
2022-12-19T10:43:10.796Z,1018.36
2022-12-19T10:44:02.936Z,1018.30
2022-12-19T10:45:02.868Z,1018.37
2022-12-19T10:46:02.954Z,1018.35
2022-12-19T10:47:04.520Z,1018.26
2022-12-19T10:48:02.695Z,1018.21
2022-12-19T10:49:02.611Z,1018.14
2022-12-19T10:50:09.054Z,1018.23
2022-12-19T10:51:06.307Z,1018.25
2022-12-19T10:52:02.389Z,1018.12
2022-12-19T10:53:02.352Z,1018.14
2022-12-19T10:54:02.308Z,1018.09
2022-12-19T10:55:02.222Z,1018.05
2022-12-19T10:56:02.133Z,1018.01
2022-12-19T10:57:02.097Z,1017.99
2022-12-19T10:58:02.021Z,1017.96
2022-12-19T10:59:03.112Z,1017.98
2022-12-19T11:00:01.823Z,1017.95
2022-12-19T11:01:01.861Z,1017.93
2022-12-19T11:02:04.957Z,1017.89
2022-12-19T11:03:01.772Z,1017.91
2022-12-19T11:04:01.555Z,1017.89
2022-12-19T11:05:01.539Z,1017.96
2022-12-19T11:06:01.482Z,1017.89
2022-12-19T11:07:01.338Z,1017.87
2022-12-19T11:08:01.251Z,1017.86
2022-12-19T11:09:01.207Z,1017.78
2022-12-19T11:10:46.972Z,1017.80
2022-12-19T11:12:01.956Z,1017.76
2022-12-19T11:16:17.231Z,1017.74
2022-12-19T11:17:35.215Z,1017.65
2022-12-19T11:17:58.601Z,1017.71
2022-12-19T11:20:30.717Z,1017.63
2022-12-19T11:21:10.587Z,1017.68
2022-12-19T11:22:21.003Z,1017.62
2022-12-19T11:28:36.003Z,1017.64
2022-12-19T11:29:29.765Z,1017.61
2022-12-19T11:29:30.270Z,1017.65
2022-12-19T11:29:31.565Z,1017.59
2022-12-19T11:29:32.821Z,1017.60
2022-12-19T11:29:44.573Z,1017.61
2022-12-19T11:30:25.736Z,1017.54
2022-12-19T11:30:26.146Z,1017.57
2022-12-19T11:30:34.314Z,1017.52
2022-12-19T11:30:35.300Z,1017.44
2022-12-19T11:30:45.316Z,1017.61
2022-12-19T11:30:49.021Z,1017.57
2022-12-19T11:31:43.875Z,1017.50
2022-12-19T11:32:59.537Z,1017.46
2022-12-19T11:33:59.401Z,1017.49
2022-12-19T11:34:59.335Z,1017.47
2022-12-19T11:35:59.258Z,1017.42
2022-12-19T11:36:59.201Z,1017.46
2022-12-19T11:37:59.114Z,1017.48
2022-12-19T11:38:59.048Z,1017.44
2022-12-19T11:39:58.975Z,1017.48
2022-12-19T11:40:58.892Z,1017.46
2022-12-19T11:41:58.867Z,1017.46
2022-12-19T11:43:33.916Z,1017.43
2022-12-19T11:43:58.701Z,1017.44
2022-12-19T11:44:58.605Z,1017.43
2022-12-19T11:45:58.542Z,1017.44
2022-12-19T11:46:58.476Z,1017.39
2022-12-19T11:47:58.396Z,1017.42
2022-12-19T11:48:58.355Z,1017.45
2022-12-19T11:49:58.270Z,1017.40
2022-12-19T11:50:58.331Z,1017.36
2022-12-19T11:51:58.122Z,1017.35
2022-12-19T11:53:11.409Z,1017.33
2022-12-19T11:53:57.982Z,1017.27
2022-12-19T11:54:57.906Z,1017.29
2022-12-19T11:55:57.832Z,1017.26
2022-12-19T11:56:57.822Z,1017.25
2022-12-19T11:57:57.692Z,1017.24
2022-12-19T11:58:57.617Z,1017.28
2022-12-19T12:00:03.062Z,1017.28
2022-12-19T12:00:57.517Z,1017.27
2022-12-19T12:01:57.489Z,1017.24
2022-12-19T12:02:57.466Z,1017.23
2022-12-19T12:04:02.270Z,1017.21
2022-12-19T12:04:57.240Z,1017.22
2022-12-19T12:05:57.118Z,1017.16
2022-12-19T12:06:57.835Z,1017.17
2022-12-19T12:09:52.608Z,1017.16
2022-12-19T12:12:19.030Z,1017.13
2022-12-19T12:14:37.181Z,1017.09
2022-12-19T12:17:06.283Z,1017.04
2022-12-19T12:17:37.579Z,1017.07